sensor_id;sensor_type;location;lat;lon;timestamp;pressure;altitude;pressure_sealevel;temperature;humidity
10474;BME280;5284;50.446;7.904;2023-11-18T00:03:34;99275.50;;;3.65;100.00
10474;BME280;5284;50.446;7.904;2023-11-18T00:08:39;99268.63;;;3.62;100.00
10474;BME280;5284;50.446;7.904;2023-11-18T00:13:41;99264.31;;;3.60;100.00
10474;BME280;5284;50.446;7.904;2023-11-18T00:18:44;99275.59;;;3.63;100.00
10474;BME280;5284;50.446;7.904;2023-11-18T00:23:49;99271.25;;;3.62;100.00
10474;BME280;5284;50.446;7.904;2023-11-18T00:28:52;99264.19;;;3.63;100.00
10474;BME280;5284;50.446;7.904;2023-11-18T00:33:56;99260.69;;;3.62;100.00
10474;BME280;5284;50.446;7.904;2023-11-18T00:39:00;99269.41;;;3.64;100.00
10474;BME280;5284;50.446;7.904;2023-11-18T00:44:07;99278.84;;;3.50;100.00
10474;BME280;5284;50.446;7.904;2023-11-18T00:49:10;99281.94;;;3.59;100.00
10474;BME280;5284;50.446;7.904;2023-11-18T00:54:15;99282.94;;;3.37;100.00
10474;BME280;5284;50.446;7.904;2023-11-18T00:59:17;99286.59;;;3.34;100.00
10474;BME280;5284;50.446;7.904;2023-11-18T01:04:20;99281.38;;;3.33;100.00
10474;BME280;5284;50.446;7.904;2023-11-18T01:09:24;99272.16;;;3.23;100.00
10474;BME280;5284;50.446;7.904;2023-11-18T01:14:31;99265.97;;;3.04;100.00
10474;BME280;5284;50.446;7.904;2023-11-18T01:19:36;99280.69;;;3.09;100.00
10474;BME280;5284;50.446;7.904;2023-11-18T01:24:41;99280.72;;;3.28;100.00
10474;BME280;5284;50.446;7.904;2023-11-18T01:29:44;99275.91;;;3.17;100.00
10474;BME280;5284;50.446;7.904;2023-11-18T01:34:48;99267.19;;;3.17;100.00
10474;BME280;5284;50.446;7.904;2023-11-18T01:39:53;99272.59;;;3.14;100.00
10474;BME280;5284;50.446;7.904;2023-11-18T01:44:56;99260.16;;;2.97;100.00
10474;BME280;5284;50.446;7.904;2023-11-18T01:50:02;99270.81;;;2.95;100.00
10474;BME280;5284;50.446;7.904;2023-11-18T01:55:10;99275.94;;;2.97;100.00
10474;BME280;5284;50.446;7.904;2023-11-18T02:00:14;99284.69;;;2.98;100.00
10474;BME280;5284;50.446;7.904;2023-11-18T02:05:19;99294.25;;;3.00;100.00
10474;BME280;5284;50.446;7.904;2023-11-18T02:10:25;99302.59;;;2.90;100.00
10474;BME280;5284;50.446;7.904;2023-11-18T02:15:30;99299.84;;;2.93;100.00
10474;BME280;5284;50.446;7.904;2023-11-18T02:20:33;99314.00;;;2.91;100.00
10474;BME280;5284;50.446;7.904;2023-11-18T02:25:42;99295.56;;;2.91;100.00
10474;BME280;5284;50.446;7.904;2023-11-18T02:30:47;99296.38;;;2.71;100.00
10474;BME280;5284;50.446;7.904;2023-11-18T02:35:52;99289.97;;;2.78;100.00
10474;BME280;5284;50.446;7.904;2023-11-18T02:41:02;99288.50;;;2.91;100.00
10474;BME280;5284;50.446;7.904;2023-11-18T02:46:07;99280.94;;;2.84;100.00
10474;BME280;5284;50.446;7.904;2023-11-18T02:51:10;99275.13;;;2.76;100.00
10474;BME280;5284;50.446;7.904;2023-11-18T02:56:16;99269.47;;;2.65;100.00
10474;BME280;5284;50.446;7.904;2023-11-18T03:01:20;99272.03;;;2.66;100.00
10474;BME280;5284;50.446;7.904;2023-11-18T03:06:24;99260.19;;;2.56;100.00
10474;BME280;5284;50.446;7.904;2023-11-18T03:11:28;99271.44;;;2.60;100.00
10474;BME280;5284;50.446;7.904;2023-11-18T03:16:32;99282.78;;;2.62;100.00
10474;BME280;5284;50.446;7.904;2023-11-18T03:21:35;99279.47;;;2.57;100.00
10474;BME280;5284;50.446;7.904;2023-11-18T03:26:41;99275.78;;;2.61;100.00
10474;BME280;5284;50.446;7.904;2023-11-18T03:31:44;99283.59;;;2.62;100.00
10474;BME280;5284;50.446;7.904;2023-11-18T03:36:50;99286.31;;;2.61;100.00
10474;BME280;5284;50.446;7.904;2023-11-18T03:41:55;99275.56;;;2.45;100.00
10474;BME280;5284;50.446;7.904;2023-11-18T03:46:58;99271.81;;;2.51;100.00
10474;BME280;5284;50.446;7.904;2023-11-18T03:52:01;99258.66;;;2.51;100.00
10474;BME280;5284;50.446;7.904;2023-11-18T03:57:06;99259.44;;;2.53;100.00
10474;BME280;5284;50.446;7.904;2023-11-18T04:02:09;99265.75;;;2.49;100.00
10474;BME280;5284;50.446;7.904;2023-11-18T04:07:12;99259.41;;;2.54;100.00
10474;BME280;5284;50.446;7.904;2023-11-18T04:12:17;99259.22;;;2.59;100.00
10474;BME280;5284;50.446;7.904;2023-11-18T04:17:20;99261.06;;;2.57;100.00
10474;BME280;5284;50.446;7.904;2023-11-18T04:22:24;99255.88;;;2.54;100.00
10474;BME280;5284;50.446;7.904;2023-11-18T04:27:29;99273.22;;;2.59;100.00
10474;BME280;5284;50.446;7.904;2023-11-18T04:32:32;99273.47;;;2.53;100.00
10474;BME280;5284;50.446;7.904;2023-11-18T04:37:35;99265.44;;;2.56;100.00
10474;BME280;5284;50.446;7.904;2023-11-18T04:42:40;99270.59;;;2.59;100.00
10474;BME280;5284;50.446;7.904;2023-11-18T04:47:46;99268.81;;;2.60;100.00
10474;BME280;5284;50.446;7.904;2023-11-18T04:52:51;99257.06;;;2.47;100.00
10474;BME280;5284;50.446;7.904;2023-11-18T04:57:55;99250.56;;;2.55;100.00
10474;BME280;5284;50.446;7.904;2023-11-18T05:02:59;99260.75;;;2.43;100.00
10474;BME280;5284;50.446;7.904;2023-11-18T05:08:03;99237.94;;;2.43;100.00
10474;BME280;5284;50.446;7.904;2023-11-18T05:13:09;99224.91;;;2.40;100.00
10474;BME280;5284;50.446;7.904;2023-11-18T05:18:13;99217.41;;;2.51;100.00
10474;BME280;5284;50.446;7.904;2023-11-18T05:23:17;99216.00;;;2.43;100.00
10474;BME280;5284;50.446;7.904;2023-11-18T05:28:22;99209.78;;;2.45;100.00
10474;BME280;5284;50.446;7.904;2023-11-18T05:33:26;99208.38;;;2.37;100.00
10474;BME280;5284;50.446;7.904;2023-11-18T05:38:30;99206.50;;;2.40;100.00
10474;BME280;5284;50.446;7.904;2023-11-18T05:43:38;99205.09;;;2.32;100.00
10474;BME280;5284;50.446;7.904;2023-11-18T05:48:43;99201.84;;;2.25;100.00
10474;BME280;5284;50.446;7.904;2023-11-18T05:53:46;99208.53;;;2.12;100.00
10474;BME280;5284;50.446;7.904;2023-11-18T05:58:50;99204.75;;;2.19;100.00
10474;BME280;5284;50.446;7.904;2023-11-18T06:03:55;99208.53;;;2.12;100.00
10474;BME280;5284;50.446;7.904;2023-11-18T06:08:59;99209.25;;;2.16;100.00
10474;BME280;5284;50.446;7.904;2023-11-18T06:14:07;99210.84;;;2.20;100.00
10474;BME280;5284;50.446;7.904;2023-11-18T06:19:11;99205.56;;;2.20;100.00
10474;BME280;5284;50.446;7.904;2023-11-18T06:24:14;99201.94;;;2.24;100.00
10474;BME280;5284;50.446;7.904;2023-11-18T06:29:20;99201.69;;;2.08;100.00
10474;BME280;5284;50.446;7.904;2023-11-18T06:34:23;99205.78;;;2.15;100.00
10474;BME280;5284;50.446;7.904;2023-11-18T06:39:28;99214.50;;;2.16;100.00
10474;BME280;5284;50.446;7.904;2023-11-18T06:44:33;99202.72;;;2.26;100.00
10474;BME280;5284;50.446;7.904;2023-11-18T06:49:36;99197.50;;;2.24;100.00
10474;BME280;5284;50.446;7.904;2023-11-18T06:54:40;99189.88;;;2.18;100.00
10474;BME280;5284;50.446;7.904;2023-11-18T06:59:45;99187.16;;;2.20;100.00
10474;BME280;5284;50.446;7.904;2023-11-18T07:04:48;99185.16;;;2.26;100.00
10474;BME280;5284;50.446;7.904;2023-11-18T07:09:50;99185.44;;;2.19;100.00
10474;BME280;5284;50.446;7.904;2023-11-18T07:14:55;99188.00;;;2.22;100.00
10474;BME280;5284;50.446;7.904;2023-11-18T07:19:58;99210.75;;;2.23;100.00
10474;BME280;5284;50.446;7.904;2023-11-18T07:25:03;99218.25;;;2.32;100.00
10474;BME280;5284;50.446;7.904;2023-11-18T07:30:10;99211.16;;;2.34;100.00
10474;BME280;5284;50.446;7.904;2023-11-18T07:35:13;99220.50;;;2.41;100.00
10474;BME280;5284;50.446;7.904;2023-11-18T07:40:15;99227.28;;;2.46;100.00
10474;BME280;5284;50.446;7.904;2023-11-18T07:45:26;99225.66;;;2.64;100.00
10474;BME280;5284;50.446;7.904;2023-11-18T07:50:30;99230.56;;;2.71;100.00
10474;BME280;5284;50.446;7.904;2023-11-18T07:55:34;99235.38;;;2.82;100.00
10474;BME280;5284;50.446;7.904;2023-11-18T08:00:43;99224.66;;;2.86;100.00
10474;BME280;5284;50.446;7.904;2023-11-18T08:05:47;99227.81;;;2.94;100.00
10474;BME280;5284;50.446;7.904;2023-11-18T08:10:51;99229.88;;;3.06;100.00
10474;BME280;5284;50.446;7.904;2023-11-18T08:15:56;99222.91;;;3.05;100.00
10474;BME280;5284;50.446;7.904;2023-11-18T08:20:59;99216.47;;;3.12;100.00
10474;BME280;5284;50.446;7.904;2023-11-18T08:26:04;99206.63;;;3.15;100.00
10474;BME280;5284;50.446;7.904;2023-11-18T08:31:12;99193.94;;;3.05;100.00
10474;BME280;5284;50.446;7.904;2023-11-18T08:36:18;99192.13;;;3.07;100.00
10474;BME280;5284;50.446;7.904;2023-11-18T08:41:21;99183.81;;;2.96;100.00
10474;BME280;5284;50.446;7.904;2023-11-18T08:46:25;99185.41;;;3.18;100.00
10474;BME280;5284;50.446;7.904;2023-11-18T08:51:28;99193.41;;;3.17;100.00
10474;BME280;5284;50.446;7.904;2023-11-18T08:56:33;99204.88;;;3.16;100.00
10474;BME280;5284;50.446;7.904;2023-11-18T09:01:37;99192.69;;;3.13;100.00
10474;BME280;5284;50.446;7.904;2023-11-18T09:06:42;99201.81;;;3.25;100.00
10474;BME280;5284;50.446;7.904;2023-11-18T09:11:45;99200.84;;;3.46;100.00
10474;BME280;5284;50.446;7.904;2023-11-18T09:16:52;99188.59;;;3.45;100.00
10474;BME280;5284;50.446;7.904;2023-11-18T09:21:56;99183.88;;;3.51;100.00
10474;BME280;5284;50.446;7.904;2023-11-18T09:26:59;99187.72;;;3.63;100.00
10474;BME280;5284;50.446;7.904;2023-11-18T09:32:04;99191.44;;;3.59;100.00
10474;BME280;5284;50.446;7.904;2023-11-18T09:37:08;99190.78;;;3.72;100.00
10474;BME280;5284;50.446;7.904;2023-11-18T09:42:12;99188.06;;;3.74;100.00
10474;BME280;5284;50.446;7.904;2023-11-18T09:47:23;99187.63;;;3.83;100.00
10474;BME280;5284;50.446;7.904;2023-11-18T09:52:30;99179.47;;;3.87;100.00
10474;BME280;5284;50.446;7.904;2023-11-18T09:57:38;99190.75;;;3.91;100.00
10474;BME280;5284;50.446;7.904;2023-11-18T10:02:44;99189.03;;;3.90;100.00
10474;BME280;5284;50.446;7.904;2023-11-18T10:07:49;99181.56;;;4.16;100.00
10474;BME280;5284;50.446;7.904;2023-11-18T10:12:53;99182.97;;;4.23;100.00
10474;BME280;5284;50.446;7.904;2023-11-18T10:18:02;99169.09;;;4.20;100.00
10474;BME280;5284;50.446;7.904;2023-11-18T10:23:09;99161.94;;;4.39;100.00
10474;BME280;5284;50.446;7.904;2023-11-18T10:28:21;99151.44;;;4.54;100.00
10474;BME280;5284;50.446;7.904;2023-11-18T10:33:26;99160.84;;;4.59;100.00
10474;BME280;5284;50.446;7.904;2023-11-18T10:38:38;99148.44;;;4.61;100.00
10474;BME280;5284;50.446;7.904;2023-11-18T10:43:45;99135.94;;;4.65;100.00
10474;BME280;5284;50.446;7.904;2023-11-18T10:48:52;99121.25;;;4.59;100.00
10474;BME280;5284;50.446;7.904;2023-11-18T10:53:56;99121.09;;;4.62;100.00
10474;BME280;5284;50.446;7.904;2023-11-18T10:59:05;99112.31;;;4.62;100.00
10474;BME280;5284;50.446;7.904;2023-11-18T11:04:10;99105.50;;;4.73;100.00
10474;BME280;5284;50.446;7.904;2023-11-18T11:09:13;99094.50;;;4.65;100.00
10474;BME280;5284;50.446;7.904;2023-11-18T11:14:20;99081.88;;;4.87;100.00
10474;BME280;5284;50.446;7.904;2023-11-18T11:19:34;99068.41;;;4.92;100.00
10474;BME280;5284;50.446;7.904;2023-11-18T11:24:55;99055.88;;;4.95;100.00
10474;BME280;5284;50.446;7.904;2023-11-18T11:30:06;99037.31;;;4.97;100.00
10474;BME280;5284;50.446;7.904;2023-11-18T11:35:19;99035.28;;;5.02;100.00
10474;BME280;5284;50.446;7.904;2023-11-18T11:40:26;99023.59;;;5.06;100.00
10474;BME280;5284;50.446;7.904;2023-11-18T11:45:31;99008.75;;;5.03;100.00
10474;BME280;5284;50.446;7.904;2023-11-18T11:50:37;99007.50;;;5.10;100.00
10474;BME280;5284;50.446;7.904;2023-11-18T11:55:49;99005.16;;;5.20;100.00
10474;BME280;5284;50.446;7.904;2023-11-18T12:00:53;99000.72;;;5.36;100.00
10474;BME280;5284;50.446;7.904;2023-11-18T12:05:59;99002.09;;;5.43;100.00
10474;BME280;5284;50.446;7.904;2023-11-18T12:11:14;98987.84;;;5.45;100.00
10474;BME280;5284;50.446;7.904;2023-11-18T12:16:18;98988.09;;;5.41;100.00
10474;BME280;5284;50.446;7.904;2023-11-18T12:21:57;98988.75;;;5.44;100.00
10474;BME280;5284;50.446;7.904;2023-11-18T12:27:04;98990.19;;;5.50;100.00
10474;BME280;5284;50.446;7.904;2023-11-18T12:38:30;98960.81;;;5.70;100.00
10474;BME280;5284;50.446;7.904;2023-11-18T12:43:50;98941.78;;;5.79;100.00
10474;BME280;5284;50.446;7.904;2023-11-18T12:49:04;98925.72;;;5.82;100.00
10474;BME280;5284;50.446;7.904;2023-11-18T12:54:09;98912.47;;;5.82;100.00
10474;BME280;5284;50.446;7.904;2023-11-18T12:59:14;98911.47;;;5.84;100.00
10474;BME280;5284;50.446;7.904;2023-11-18T13:04:19;98902.19;;;5.91;100.00
10474;BME280;5284;50.446;7.904;2023-11-18T13:09:23;98895.41;;;5.87;100.00
10474;BME280;5284;50.446;7.904;2023-11-18T13:14:33;98889.81;;;5.92;100.00
10474;BME280;5284;50.446;7.904;2023-11-18T13:19:38;98879.34;;;5.90;100.00
10474;BME280;5284;50.446;7.904;2023-11-18T13:24:43;98855.41;;;5.92;100.00
10474;BME280;5284;50.446;7.904;2023-11-18T13:29:48;98852.41;;;5.98;100.00
10474;BME280;5284;50.446;7.904;2023-11-18T13:34:52;98845.56;;;5.94;100.00
10474;BME280;5284;50.446;7.904;2023-11-18T13:39:57;98853.69;;;5.91;100.00
10474;BME280;5284;50.446;7.904;2023-11-18T13:45:03;98862.25;;;5.96;100.00
10474;BME280;5284;50.446;7.904;2023-11-18T13:50:11;98851.53;;;5.97;100.00
10474;BME280;5284;50.446;7.904;2023-11-18T13:55:17;98832.91;;;5.85;100.00
10474;BME280;5284;50.446;7.904;2023-11-18T14:00:28;98812.31;;;5.90;100.00
10474;BME280;5284;50.446;7.904;2023-11-18T14:05:33;98810.34;;;5.93;100.00
10474;BME280;5284;50.446;7.904;2023-11-18T14:10:39;98826.03;;;5.82;100.00
10474;BME280;5284;50.446;7.904;2023-11-18T14:15:43;98801.06;;;5.86;100.00
10474;BME280;5284;50.446;7.904;2023-11-18T14:20:47;98807.50;;;5.82;100.00
10474;BME280;5284;50.446;7.904;2023-11-18T14:25:53;98794.16;;;5.84;100.00
10474;BME280;5284;50.446;7.904;2023-11-18T14:30:57;98798.81;;;5.80;100.00
10474;BME280;5284;50.446;7.904;2023-11-18T14:36:00;98776.78;;;5.80;100.00
10474;BME280;5284;50.446;7.904;2023-11-18T14:41:08;98775.09;;;5.79;100.00
10474;BME280;5284;50.446;7.904;2023-11-18T14:46:12;98761.06;;;5.77;100.00
10474;BME280;5284;50.446;7.904;2023-11-18T14:51:16;98756.47;;;5.80;100.00
10474;BME280;5284;50.446;7.904;2023-11-18T14:56:20;98759.22;;;5.79;100.00
10474;BME280;5284;50.446;7.904;2023-11-18T15:01:25;98748.63;;;5.79;100.00
10474;BME280;5284;50.446;7.904;2023-11-18T15:06:28;98726.69;;;5.77;100.00
10474;BME280;5284;50.446;7.904;2023-11-18T15:11:34;98720.63;;;5.75;100.00
10474;BME280;5284;50.446;7.904;2023-11-18T15:16:37;98723.09;;;5.78;100.00
10474;BME280;5284;50.446;7.904;2023-11-18T15:21:41;98702.13;;;5.75;100.00
10474;BME280;5284;50.446;7.904;2023-11-18T15:26:45;98697.56;;;5.77;100.00
10474;BME280;5284;50.446;7.904;2023-11-18T15:31:52;98671.50;;;5.71;100.00
10474;BME280;5284;50.446;7.904;2023-11-18T15:36:56;98641.56;;;5.70;100.00
10474;BME280;5284;50.446;7.904;2023-11-18T15:42:04;98641.88;;;5.66;100.00
10474;BME280;5284;50.446;7.904;2023-11-18T15:47:08;98645.16;;;5.69;100.00
10474;BME280;5284;50.446;7.904;2023-11-18T15:52:15;98626.63;;;5.69;100.00
10474;BME280;5284;50.446;7.904;2023-11-18T15:57:20;98623.97;;;5.69;100.00
10474;BME280;5284;50.446;7.904;2023-11-18T16:02:24;98608.84;;;5.71;100.00
10474;BME280;5284;50.446;7.904;2023-11-18T16:07:28;98589.38;;;5.72;100.00
10474;BME280;5284;50.446;7.904;2023-11-18T16:12:33;98557.66;;;5.72;100.00
10474;BME280;5284;50.446;7.904;2023-11-18T16:17:36;98546.22;;;5.72;100.00
10474;BME280;5284;50.446;7.904;2023-11-18T16:22:39;98539.88;;;5.74;100.00
10474;BME280;5284;50.446;7.904;2023-11-18T16:27:44;98524.00;;;5.74;100.00
10474;BME280;5284;50.446;7.904;2023-11-18T16:32:47;98516.06;;;5.74;100.00
10474;BME280;5284;50.446;7.904;2023-11-18T16:37:52;98526.44;;;5.77;100.00
10474;BME280;5284;50.446;7.904;2023-11-18T16:42:57;98525.53;;;5.78;100.00
10474;BME280;5284;50.446;7.904;2023-11-18T16:48:03;98534.97;;;5.82;100.00
10474;BME280;5284;50.446;7.904;2023-11-18T16:53:07;98507.88;;;5.79;100.00
10474;BME280;5284;50.446;7.904;2023-11-18T16:58:14;98501.41;;;5.83;100.00
10474;BME280;5284;50.446;7.904;2023-11-18T17:03:17;98501.41;;;5.83;100.00
10474;BME280;5284;50.446;7.904;2023-11-18T17:08:21;98502.28;;;5.83;100.00
10474;BME280;5284;50.446;7.904;2023-11-18T17:13:26;98507.44;;;5.85;100.00
10474;BME280;5284;50.446;7.904;2023-11-18T17:18:32;98493.41;;;5.84;100.00
10474;BME280;5284;50.446;7.904;2023-11-18T17:23:36;98486.28;;;5.85;100.00
10474;BME280;5284;50.446;7.904;2023-11-18T17:28:44;98480.78;;;5.88;100.00
10474;BME280;5284;50.446;7.904;2023-11-18T17:33:48;98462.38;;;5.86;100.00
10474;BME280;5284;50.446;7.904;2023-11-18T17:38:52;98448.09;;;5.89;100.00
10474;BME280;5284;50.446;7.904;2023-11-18T17:43:58;98452.41;;;5.90;100.00
10474;BME280;5284;50.446;7.904;2023-11-18T17:49:01;98461.22;;;5.90;100.00
10474;BME280;5284;50.446;7.904;2023-11-18T17:54:06;98462.78;;;5.93;100.00
10474;BME280;5284;50.446;7.904;2023-11-18T17:59:11;98449.69;;;5.91;100.00
10474;BME280;5284;50.446;7.904;2023-11-18T18:04:16;98443.44;;;5.92;100.00
10474;BME280;5284;50.446;7.904;2023-11-18T18:09:20;98425.75;;;5.93;100.00
10474;BME280;5284;50.446;7.904;2023-11-18T18:14:28;98425.75;;;5.93;100.00
10474;BME280;5284;50.446;7.904;2023-11-18T18:19:31;98432.84;;;5.92;100.00
10474;BME280;5284;50.446;7.904;2023-11-18T18:24:34;98436.25;;;5.94;100.00
10474;BME280;5284;50.446;7.904;2023-11-18T18:29:39;98409.69;;;5.96;100.00
10474;BME280;5284;50.446;7.904;2023-11-18T18:34:42;98402.59;;;5.96;100.00
10474;BME280;5284;50.446;7.904;2023-11-18T18:39:46;98408.75;;;5.97;100.00
10474;BME280;5284;50.446;7.904;2023-11-18T18:44:52;98405.97;;;5.98;100.00
10474;BME280;5284;50.446;7.904;2023-11-18T18:49:57;98408.75;;;5.97;100.00
10474;BME280;5284;50.446;7.904;2023-11-18T18:55:01;98397.06;;;5.99;100.00
10474;BME280;5284;50.446;7.904;2023-11-18T19:00:08;98400.38;;;6.03;100.00
10474;BME280;5284;50.446;7.904;2023-11-18T19:05:14;98395.69;;;6.06;100.00
10474;BME280;5284;50.446;7.904;2023-11-18T19:10:23;98399.19;;;6.06;100.00
10474;BME280;5284;50.446;7.904;2023-11-18T19:15:28;98378.84;;;6.07;100.00
10474;BME280;5284;50.446;7.904;2023-11-18T19:20:31;98353.47;;;6.04;100.00
10474;BME280;5284;50.446;7.904;2023-11-18T19:25:36;98334.81;;;6.06;100.00
10474;BME280;5284;50.446;7.904;2023-11-18T19:30:40;98317.97;;;6.07;100.00
10474;BME280;5284;50.446;7.904;2023-11-18T19:35:43;98309.94;;;6.08;100.00
10474;BME280;5284;50.446;7.904;2023-11-18T19:40:47;98332.69;;;6.11;100.00
10474;BME280;5284;50.446;7.904;2023-11-18T19:45:51;98340.97;;;6.19;100.00
10474;BME280;5284;50.446;7.904;2023-11-18T19:50:56;98333.84;;;6.19;100.00
10474;BME280;5284;50.446;7.904;2023-11-18T19:55:59;98342.44;;;6.23;100.00
10474;BME280;5284;50.446;7.904;2023-11-18T20:01:04;98333.84;;;6.19;100.00
10474;BME280;5284;50.446;7.904;2023-11-18T20:06:18;98326.53;;;6.23;100.00
10474;BME280;5284;50.446;7.904;2023-11-18T20:11:21;98334.50;;;6.23;100.00
10474;BME280;5284;50.446;7.904;2023-11-18T20:16:25;98330.16;;;6.22;100.00
10474;BME280;5284;50.446;7.904;2023-11-18T20:21:30;98322.72;;;6.27;100.00
10474;BME280;5284;50.446;7.904;2023-11-18T20:26:33;98314.78;;;6.27;100.00
10474;BME280;5284;50.446;7.904;2023-11-18T20:31:38;98297.06;;;6.27;100.00
10474;BME280;5284;50.446;7.904;2023-11-18T20:36:42;98287.13;;;6.31;100.00
10474;BME280;5284;50.446;7.904;2023-11-18T20:41:45;98280.88;;;6.32;100.00
10474;BME280;5284;50.446;7.904;2023-11-18T20:46:50;98278.94;;;6.34;100.00
10474;BME280;5284;50.446;7.904;2023-11-18T20:51:54;98277.78;;;6.38;100.00
10474;BME280;5284;50.446;7.904;2023-11-18T20:56:59;98260.19;;;6.37;100.00
10474;BME280;5284;50.446;7.904;2023-11-18T21:02:03;98246.72;;;6.40;100.00
10474;BME280;5284;50.446;7.904;2023-11-18T21:07:08;98240.38;;;6.42;100.00
10474;BME280;5284;50.446;7.904;2023-11-18T21:12:12;98241.09;;;6.44;100.00
10474;BME280;5284;50.446;7.904;2023-11-18T21:17:21;98240.06;;;6.47;100.00
10474;BME280;5284;50.446;7.904;2023-11-18T21:22:27;98229.56;;;6.45;100.00
10474;BME280;5284;50.446;7.904;2023-11-18T21:27:30;98223.28;;;6.46;100.00
10474;BME280;5284;50.446;7.904;2023-11-18T21:32:36;98218.41;;;6.53;100.00
10474;BME280;5284;50.446;7.904;2023-11-18T21:37:44;98213.09;;;6.53;100.00
10474;BME280;5284;50.446;7.904;2023-11-18T21:42:47;98198.91;;;6.54;100.00
10474;BME280;5284;50.446;7.904;2023-11-18T21:47:56;98195.06;;;6.58;100.00
10474;BME280;5284;50.446;7.904;2023-11-18T21:53:02;98192.28;;;6.59;100.00
10474;BME280;5284;50.446;7.904;2023-11-18T21:58:08;98180.63;;;6.62;100.00
10474;BME280;5284;50.446;7.904;2023-11-18T22:03:12;98175.94;;;6.65;100.00
10474;BME280;5284;50.446;7.904;2023-11-18T22:08:15;98166.91;;;6.68;100.00
10474;BME280;5284;50.446;7.904;2023-11-18T22:13:23;98149.09;;;6.70;100.00
10474;BME280;5284;50.446;7.904;2023-11-18T22:18:28;98149.81;;;6.72;100.00
10474;BME280;5284;50.446;7.904;2023-11-18T22:23:31;98155.75;;;6.75;100.00
10474;BME280;5284;50.446;7.904;2023-11-18T22:28:39;98141.41;;;6.78;100.00
10474;BME280;5284;50.446;7.904;2023-11-18T22:33:44;98144.66;;;6.81;100.00
10474;BME280;5284;50.446;7.904;2023-11-18T22:38:47;98147.22;;;6.83;100.00
10474;BME280;5284;50.446;7.904;2023-11-18T22:43:52;98122.16;;;6.87;100.00
10474;BME280;5284;50.446;7.904;2023-11-18T22:48:57;98141.22;;;6.92;100.00
10474;BME280;5284;50.446;7.904;2023-11-18T22:54:00;98132.06;;;6.96;100.00
10474;BME280;5284;50.446;7.904;2023-11-18T22:59:03;98115.09;;;6.98;100.00
10474;BME280;5284;50.446;7.904;2023-11-18T23:04:10;98132.06;;;7.40;100.00
10474;BME280;5284;50.446;7.904;2023-11-18T23:09:14;98140.00;;;7.72;100.00
10474;BME280;5284;50.446;7.904;2023-11-18T23:14:18;98133.44;;;7.98;100.00
10474;BME280;5284;50.446;7.904;2023-11-18T23:19:22;98126.09;;;8.02;100.00
10474;BME280;5284;50.446;7.904;2023-11-18T23:24:26;98116.50;;;8.10;100.00
10474;BME280;5284;50.446;7.904;2023-11-18T23:29:28;98147.88;;;8.16;100.00
10474;BME280;5284;50.446;7.904;2023-11-18T23:34:33;98134.72;;;8.26;100.00
10474;BME280;5284;50.446;7.904;2023-11-18T23:39:35;98135.66;;;8.36;100.00
10474;BME280;5284;50.446;7.904;2023-11-18T23:44:42;98095.50;;;8.50;100.00
10474;BME280;5284;50.446;7.904;2023-11-18T23:49:47;98089.66;;;8.56;100.00
10474;BME280;5284;50.446;7.904;2023-11-18T23:54:58;98083.09;;;8.60;100.00
